Time,TemperatureF,DewpointF,PressureIn,WindDirection,WindDirectionDegrees,WindSpeedMPH,WindSpeedGustMPH,Humidity,HourlyPrecipIn,Conditions,Clouds,dailyrainin,SoftwareType,DateUTC
2013-01-31 00:01:00,80.0,80.0,29.71,North,0,0.0,0.0,99,0.00,,,0.00,,2013-01-30 14:01:00,
2013-01-31 00:11:00,80.0,80.0,29.71,North,0,0.0,0.0,99,0.00,,,0.00,,2013-01-30 14:11:00,
2013-01-31 00:21:00,79.0,79.0,29.71,NW,314,0.0,1.0,99,0.00,,,0.00,,2013-01-30 14:21:00,
2013-01-31 00:32:00,79.0,79.0,29.70,North,0,0.0,0.0,99,0.00,,,0.00,,2013-01-30 14:32:00,
2013-01-31 00:42:00,79.0,79.0,29.70,North,0,0.0,0.0,99,0.00,,,0.00,,2013-01-30 14:42:00,
2013-01-31 00:52:00,79.0,79.0,29.70,North,0,0.0,0.0,99,0.00,,,0.00,,2013-01-30 14:52:00,
2013-01-31 01:02:00,79.0,79.0,29.70,NW,314,0.0,1.0,99,0.00,,,0.00,,2013-01-30 15:02:00,
2013-01-31 01:11:00,79.0,79.0,29.70,NW,314,0.0,1.0,99,0.00,,,0.00,,2013-01-30 15:11:00,
2013-01-31 01:22:00,79.0,79.0,29.70,North,0,0.0,0.0,99,0.00,,,0.00,,2013-01-30 15:22:00,
2013-01-31 01:32:00,79.0,79.0,29.69,North,0,0.0,0.0,99,0.00,,,0.00,,2013-01-30 15:32:00,
2013-01-31 01:42:00,79.0,79.0,29.69,North,0,0.0,0.0,99,0.00,,,0.00,,2013-01-30 15:42:00,
2013-01-31 01:52:00,79.0,79.0,29.69,North,0,0.0,0.0,99,0.00,,,0.00,,2013-01-30 15:52:00,
2013-01-31 02:02:00,79.0,79.0,29.69,NW,314,0.0,1.0,99,0.00,,,0.00,,2013-01-30 16:02:00,
2013-01-31 02:11:00,79.0,79.0,29.69,NW,314,0.0,1.0,99,0.00,,,0.00,,2013-01-30 16:11:00,
2013-01-31 02:22:00,79.0,79.0,29.68,NW,314,0.0,1.0,99,0.00,,,0.00,,2013-01-30 16:22:00,
2013-01-31 02:32:00,79.0,79.0,29.69,NW,314,0.0,1.0,99,0.00,,,0.00,,2013-01-30 16:32:00,
2013-01-31 02:41:00,79.0,79.0,29.69,NW,314,0.0,1.0,99,0.00,,,0.00,,2013-01-30 16:41:00,
2013-01-31 02:51:00,79.0,79.0,29.69,NW,314,0.0,1.0,99,0.00,,,0.00,,2013-01-30 16:51:00,
2013-01-31 03:01:00,78.0,78.0,29.68,North,0,0.0,0.0,99,0.00,,,0.00,,2013-01-30 17:01:00,
2013-01-31 03:11:00,78.0,78.0,29.68,North,0,0.0,0.0,99,0.00,,,0.00,,2013-01-30 17:11:00,
2013-01-31 03:22:00,78.0,78.0,29.68,North,0,0.0,0.0,99,0.00,,,0.00,,2013-01-30 17:22:00,
2013-01-31 03:32:00,78.0,78.0,29.69,NE,46,0.0,2.0,99,0.00,,,0.00,,2013-01-30 17:32:00,
2013-01-31 03:42:00,78.0,78.0,29.69,NE,46,0.0,2.0,99,0.00,,,0.00,,2013-01-30 17:42:00,
2013-01-31 03:52:00,78.0,78.0,29.69,NE,46,0.0,2.0,99,0.00,,,0.00,,2013-01-30 17:52:00,
2013-01-31 04:01:00,77.0,77.0,29.69,North,0,0.0,0.0,99,0.00,,,0.00,,2013-01-30 18:01:00,
2013-01-31 04:11:00,77.0,77.0,29.69,North,0,0.0,0.0,99,0.00,,,0.00,,2013-01-30 18:11:00,
2013-01-31 04:21:00,77.0,77.0,29.69,North,0,0.0,0.0,99,0.00,,,0.00,,2013-01-30 18:21:00,
2013-01-31 04:32:00,77.0,77.0,29.70,North,0,0.0,0.0,99,0.00,,,0.00,,2013-01-30 18:32:00,
2013-01-31 04:43:00,77.0,77.0,29.70,North,0,0.0,0.0,99,0.00,,,0.00,,2013-01-30 18:43:00,
2013-01-31 04:52:00,77.0,77.0,29.70,North,0,0.0,0.0,99,0.00,,,0.00,,2013-01-30 18:52:00,
2013-01-31 05:02:00,77.0,77.0,29.70,North,0,0.0,0.0,99,0.00,,,0.00,,2013-01-30 19:02:00,
2013-01-31 05:11:00,77.0,77.0,29.70,North,0,0.0,0.0,99,0.00,,,0.00,,2013-01-30 19:11:00,
2013-01-31 05:22:00,77.0,77.0,29.70,North,0,0.0,0.0,99,0.00,,,0.00,,2013-01-30 19:22:00,
2013-01-31 05:32:00,77.0,77.0,29.71,North,0,0.0,0.0,99,0.00,,,0.00,,2013-01-30 19:32:00,
2013-01-31 05:42:00,77.0,77.0,29.71,North,0,0.0,0.0,99,0.00,,,0.00,,2013-01-30 19:42:00,
2013-01-31 05:53:00,77.0,77.0,29.71,North,0,0.0,0.0,99,0.00,,,0.00,,2013-01-30 19:53:00,
2013-01-31 06:02:00,77.0,77.0,29.71,North,0,0.0,0.0,99,0.00,,,0.00,,2013-01-30 20:02:00,
2013-01-31 06:11:00,77.0,77.0,29.71,North,0,0.0,0.0,99,0.00,,,0.00,,2013-01-30 20:11:00,
2013-01-31 06:22:00,78.0,78.0,29.71,North,1,0.0,1.0,99,0.00,,,0.00,,2013-01-30 20:22:00,
2013-01-31 06:33:00,78.0,78.0,29.72,NW,314,0.0,1.0,99,0.00,,,0.00,,2013-01-30 20:33:00,
2013-01-31 06:41:00,78.0,78.0,29.72,NW,314,0.0,1.0,99,0.00,,,0.00,,2013-01-30 20:41:00,
2013-01-31 06:52:00,78.0,78.0,29.72,North,0,0.0,0.0,99,0.00,,,0.00,,2013-01-30 20:52:00,
2013-01-31 07:03:00,79.0,79.0,29.73,North,353,0.0,1.0,99,0.00,,,0.00,,2013-01-30 21:03:00,
2013-01-31 07:11:00,79.0,79.0,29.73,North,353,0.0,1.0,99,0.00,,,0.00,,2013-01-30 21:11:00,
2013-01-31 07:22:00,80.0,80.0,29.73,NW,314,0.0,2.0,99,0.00,,,0.00,,2013-01-30 21:22:00,
2013-01-31 07:31:00,80.0,80.0,29.74,NW,314,0.0,1.0,99,0.00,,,0.00,,2013-01-30 21:31:00,
2013-01-31 07:42:00,80.0,80.0,29.74,NW,314,0.0,1.0,99,0.00,,,0.00,,2013-01-30 21:42:00,
2013-01-31 07:52:00,83.0,83.0,29.74,NW,321,0.0,2.0,99,0.00,,,0.00,,2013-01-30 21:52:00,
2013-01-31 08:02:00,83.0,83.0,29.73,NW,314,0.0,2.0,99,0.00,,,0.00,,2013-01-30 22:02:00,
2013-01-31 08:11:00,83.0,83.0,29.73,NW,314,0.0,2.0,99,0.00,,,0.00,,2013-01-30 22:11:00,
2013-01-31 08:21:00,86.0,86.0,29.74,NW,314,0.0,2.0,99,0.00,,,0.00,,2013-01-30 22:21:00,
2013-01-31 08:32:00,90.0,89.0,29.73,NW,314,0.0,2.0,96,0.00,,,0.00,,2013-01-30 22:32:00,
2013-01-31 08:41:00,90.0,89.0,29.73,NW,314,0.0,2.0,96,0.00,,,0.00,,2013-01-30 22:41:00,
2013-01-31 08:52:00,92.0,88.0,29.74,NW,314,0.0,2.0,89,0.00,,,0.00,,2013-01-30 22:52:00,
2013-01-31 09:01:00,94.0,88.0,29.73,SSE,162,0.0,3.0,82,0.00,,,0.00,,2013-01-30 23:01:00,
2013-01-31 09:11:00,94.0,88.0,29.73,SSE,162,0.0,3.0,82,0.00,,,0.00,,2013-01-30 23:11:00,
2013-01-31 09:22:00,95.0,89.0,29.73,SSW,202,0.0,3.0,83,0.00,,,0.00,,2013-01-30 23:22:00,
2013-01-31 09:32:00,98.0,90.0,29.72,SSW,202,0.0,4.0,78,0.00,,,0.00,,2013-01-30 23:32:00,
2013-01-31 09:42:00,98.0,90.0,29.72,SSW,202,0.0,4.0,78,0.00,,,0.00,,2013-01-30 23:42:00,
2013-01-31 09:52:00,98.0,90.0,29.72,SSW,202,0.0,4.0,78,0.00,,,0.00,,2013-01-30 23:52:00,
2013-01-31 10:01:00,97.0,90.0,29.72,South,183,1.0,5.0,80,0.00,,,0.00,,2013-01-31 00:01:00,
2013-01-31 10:11:00,97.0,90.0,29.72,South,183,1.0,5.0,80,0.00,,,0.00,,2013-01-31 00:11:00,
2013-01-31 10:21:00,96.0,88.0,29.72,SSW,206,2.0,4.0,77,0.00,,,0.00,,2013-01-31 00:21:00,
2013-01-31 10:31:00,98.0,90.0,29.72,SSW,200,2.0,4.0,78,0.00,,,0.00,,2013-01-31 00:31:00,
2013-01-31 10:42:00,98.0,90.0,29.72,SSW,200,2.0,4.0,78,0.00,,,0.00,,2013-01-31 00:42:00,
2013-01-31 10:52:00,98.0,89.0,29.72,South,174,2.0,5.0,76,0.00,,,0.00,,2013-01-31 00:52:00,
2013-01-31 11:01:00,98.0,89.0,29.72,South,174,2.0,5.0,76,0.00,,,0.00,,2013-01-31 01:01:00,
2013-01-31 11:11:00,98.0,89.0,29.72,South,174,2.0,5.0,76,0.00,,,0.00,,2013-01-31 01:11:00,
2013-01-31 11:21:00,98.0,89.0,29.72,South,174,2.0,5.0,76,0.00,,,0.00,,2013-01-31 01:21:00,
2013-01-31 12:21:00,96.0,90.0,29.70,SE,143,4.0,8.0,82,0.00,,,0.00,,2013-01-31 02:21:00,
2013-01-31 13:02:00,97.0,89.0,29.69,SSE,151,4.0,7.0,79,0.00,,,0.00,,2013-01-31 03:02:00,
2013-01-31 13:11:00,97.0,89.0,29.69,SSE,151,4.0,7.0,79,0.00,,,0.00,,2013-01-31 03:11:00,
2013-01-31 13:21:00,97.0,89.0,29.68,South,181,2.0,8.0,78,0.00,,,0.00,,2013-01-31 03:21:00,
2013-01-31 13:32:00,97.0,89.0,29.68,South,181,2.0,8.0,78,0.00,,,0.00,,2013-01-31 03:32:00,
2013-01-31 13:41:00,97.0,89.0,29.68,South,181,2.0,8.0,78,0.00,,,0.00,,2013-01-31 03:41:00,
2013-01-31 13:51:00,98.0,89.0,29.67,SE,140,1.0,6.0,76,0.00,,,0.00,,2013-01-31 03:51:00,
2013-01-31 14:02:00,98.0,89.0,29.67,SE,140,1.0,6.0,76,0.00,,,0.00,,2013-01-31 04:02:00,
2013-01-31 14:11:00,98.0,89.0,29.67,SE,140,1.0,6.0,76,0.00,,,0.00,,2013-01-31 04:11:00,
2013-01-31 14:22:00,99.0,89.0,29.66,SE,146,3.0,8.0,74,0.00,,,0.00,,2013-01-31 04:22:00,
2013-01-31 14:31:00,97.0,88.0,29.66,SSE,158,2.0,11.0,75,0.00,,,0.00,,2013-01-31 04:31:00,
2013-01-31 14:41:00,97.0,88.0,29.66,SSE,158,2.0,11.0,75,0.00,,,0.00,,2013-01-31 04:41:00,
2013-01-31 15:03:00,100.0,90.0,29.65,SE,130,2.0,9.0,73,0.00,,,0.00,,2013-01-31 05:03:00,
2013-01-31 15:11:00,100.0,90.0,29.65,SE,130,2.0,9.0,73,0.00,,,0.00,,2013-01-31 05:11:00,
2013-01-31 15:21:00,100.0,90.0,29.65,SSE,157,2.0,9.0,73,0.00,,,0.00,,2013-01-31 05:21:00,
2013-01-31 15:31:00,100.0,90.0,29.65,SSE,157,2.0,9.0,73,0.00,,,0.00,,2013-01-31 05:31:00,
2013-01-31 15:41:00,99.0,90.0,29.65,SE,139,3.0,7.0,75,0.00,,,0.00,,2013-01-31 05:41:00,
2013-01-31 15:51:00,99.0,90.0,29.65,SE,139,3.0,7.0,75,0.00,,,0.00,,2013-01-31 05:51:00,
2013-01-31 16:01:00,99.0,90.0,29.65,SE,139,3.0,7.0,75,0.00,,,0.00,,2013-01-31 06:01:00,